createdAt,value
2018-07-21T00:00:21.722Z,7.42
2018-07-21T00:02:51.298Z,8.28
2018-07-21T00:05:23.573Z,8.13
2018-07-21T00:07:52.569Z,7.58
2018-07-21T00:10:23.478Z,7.55
2018-07-21T00:12:53.620Z,7.12
2018-07-21T00:15:22.688Z,7.35
2018-07-21T00:17:52.724Z,7.58
2018-07-21T00:20:29.303Z,7.87
2018-07-21T00:22:58.300Z,8.10
2018-07-21T00:25:27.368Z,9.23
2018-07-21T00:27:56.587Z,8.13
2018-07-21T00:30:27.505Z,8.58
2018-07-21T00:32:58.692Z,8.10
2018-07-21T00:35:30.286Z,7.92
2018-07-21T00:38:01.105Z,8.00
2018-07-21T00:40:33.425Z,7.97
2018-07-21T00:43:02.319Z,8.73
2018-07-21T00:45:31.181Z,8.50
2018-07-21T00:48:00.382Z,8.65
2018-07-21T00:50:29.910Z,7.67
2018-07-21T00:53:00.206Z,7.55
2018-07-21T00:55:31.039Z,16.65
2018-07-21T00:57:59.932Z,7.95
2018-07-21T01:00:28.825Z,7.53
2018-07-21T01:02:57.891Z,7.53
2018-07-21T01:05:29.170Z,10.40
2018-07-21T01:07:58.495Z,7.75
2018-07-21T01:10:30.984Z,13.32
2018-07-21T01:13:00.340Z,7.30
2018-07-21T01:15:29.200Z,7.35
2018-07-21T01:18:00.501Z,7.05
2018-07-21T01:20:29.594Z,7.97
2018-07-21T01:25:37.170Z,9.90
2018-07-21T01:28:06.187Z,12.05
2018-07-21T01:30:35.200Z,15.63
2018-07-21T01:33:05.476Z,19.48
2018-07-21T01:35:34.864Z,27.55
2018-07-21T01:38:04.467Z,33.58
2018-07-21T01:40:33.387Z,32.85
2018-07-21T01:43:02.469Z,33.35
2018-07-21T01:45:31.549Z,37.83
2018-07-21T01:48:00.561Z,26.23
2018-07-21T01:50:29.616Z,28.35
2018-07-21T01:52:59.039Z,31.82
2018-07-21T01:55:27.892Z,23.90
2018-07-21T01:57:57.422Z,13.38
2018-07-21T02:00:28.188Z,9.30
2018-07-21T02:02:57.419Z,8.95
2018-07-21T02:05:26.628Z,8.18
2018-07-21T02:07:55.107Z,7.62
2018-07-21T02:10:24.437Z,8.10
2018-07-21T02:12:54.542Z,7.58
2018-07-21T02:15:24.615Z,7.70
2018-07-21T02:17:53.728Z,8.00
2018-07-21T02:20:23.211Z,7.80
2018-07-21T02:22:53.254Z,7.05
2018-07-21T02:25:22.551Z,7.20
2018-07-21T02:27:51.627Z,6.92
2018-07-21T02:30:31.260Z,7.33
2018-07-21T02:33:03.097Z,7.70
2018-07-21T02:35:32.486Z,7.03
2018-07-21T02:38:02.641Z,7.58
2018-07-21T02:40:31.648Z,7.50
2018-07-21T02:43:00.491Z,7.22
2018-07-21T02:45:29.269Z,7.37
2018-07-21T02:47:58.484Z,6.80
2018-07-21T02:50:27.061Z,7.60
2018-07-21T02:52:55.507Z,6.55
2018-07-21T02:55:24.147Z,6.72
2018-07-21T02:57:53.296Z,7.33
2018-07-21T03:00:22.756Z,6.75
2018-07-21T03:02:51.230Z,6.28
2018-07-21T03:05:19.705Z,6.83
2018-07-21T03:07:48.930Z,6.83
2018-07-21T03:10:17.803Z,7.92
2018-07-21T03:12:48.502Z,7.25
2018-07-21T03:15:18.654Z,6.78
2018-07-21T03:17:47.723Z,7.80
2018-07-21T03:20:18.803Z,8.13
2018-07-21T03:22:47.701Z,7.87
2018-07-21T03:25:16.949Z,7.62
2018-07-21T03:27:46.177Z,7.47
2018-07-21T03:30:15.869Z,7.12
2018-07-21T03:32:44.747Z,8.00
2018-07-21T03:35:13.819Z,6.92
2018-07-21T03:37:42.693Z,7.25
2018-07-21T03:40:11.543Z,6.97
2018-07-21T03:42:40.287Z,6.92
2018-07-21T03:45:09.426Z,6.67
2018-07-21T03:47:38.222Z,7.08
2018-07-21T03:50:07.728Z,6.83
2018-07-21T03:52:36.380Z,6.15
2018-07-21T03:55:05.276Z,6.12
2018-07-21T03:57:34.114Z,6.35
2018-07-21T04:00:03.147Z,6.12
2018-07-21T04:02:31.960Z,6.05
2018-07-21T04:05:00.756Z,6.58
2018-07-21T04:07:29.587Z,6.75
2018-07-21T04:09:58.535Z,6.40
2018-07-21T04:12:26.855Z,6.10
2018-07-21T04:14:56.689Z,8.75
2018-07-21T04:17:26.980Z,6.50
2018-07-21T04:19:56.669Z,6.30
2018-07-21T04:22:26.275Z,6.25
2018-07-21T04:24:57.933Z,6.05
2018-07-21T04:27:27.728Z,7.17
2018-07-21T04:29:56.465Z,6.85
2018-07-21T04:32:25.429Z,6.50
2018-07-21T04:34:55.209Z,6.47
2018-07-21T04:37:28.436Z,6.53
2018-07-21T04:39:57.171Z,6.50
2018-07-21T04:42:28.242Z,6.10
2018-07-21T04:45:00.305Z,6.15
2018-07-21T04:47:29.115Z,6.25
2018-07-21T04:49:57.824Z,7.28
2018-07-21T04:52:26.565Z,5.78
2018-07-21T04:54:55.483Z,5.75
2018-07-21T04:57:24.308Z,5.90
2018-07-21T04:59:54.839Z,5.50
2018-07-21T05:02:23.684Z,5.80
2018-07-21T05:04:52.601Z,5.97
2018-07-21T05:07:21.447Z,5.53
2018-07-21T05:09:51.004Z,5.65
2018-07-21T05:12:19.803Z,5.53
2018-07-21T05:14:49.246Z,5.22
2018-07-21T05:17:18.637Z,6.08
2018-07-21T05:19:47.726Z,5.40
2018-07-21T05:22:16.661Z,5.20
2018-07-21T05:24:46.248Z,5.72
2018-07-21T05:27:17.166Z,5.78
2018-07-21T05:29:46.426Z,6.15
2018-07-21T05:32:15.121Z,5.55
2018-07-21T05:40:04.383Z,5.87
2018-07-21T05:42:33.244Z,5.40
2018-07-21T05:45:02.285Z,5.70
2018-07-21T05:47:31.115Z,5.50
2018-07-21T05:52:40.832Z,5.40
2018-07-21T05:55:11.578Z,5.72
2018-07-21T05:57:41.559Z,5.72
2018-07-21T06:00:16.054Z,6.12
2018-07-21T06:02:52.216Z,5.30
2018-07-21T06:05:21.204Z,5.45
2018-07-21T06:07:50.642Z,5.12
2018-07-21T06:10:20.447Z,5.53
2018-07-21T06:14:31.913Z,5.10
2018-07-21T06:17:02.104Z,4.78
2018-07-21T06:19:31.727Z,5.22
2018-07-21T06:22:02.215Z,5.60
2018-07-21T06:24:30.992Z,5.67
2018-07-21T06:27:00.215Z,5.65
2018-07-21T06:29:30.005Z,5.60
2018-07-21T06:31:59.073Z,5.35
2018-07-21T06:34:28.451Z,5.70
2018-07-21T06:36:57.585Z,5.15
2018-07-21T06:39:29.364Z,5.50
2018-07-21T06:41:59.291Z,5.60
2018-07-21T06:44:28.734Z,5.80
2018-07-21T06:46:59.660Z,5.87
2018-07-21T06:49:28.477Z,6.28
2018-07-21T06:51:57.790Z,5.78
2018-07-21T06:54:27.107Z,5.85
2018-07-21T06:56:57.000Z,5.35
2018-07-21T06:59:27.185Z,5.67
2018-07-21T07:01:56.740Z,5.55
2018-07-21T07:04:52.682Z,6.80
2018-07-21T07:07:25.042Z,5.42
2018-07-21T07:09:54.248Z,5.40
2018-07-21T07:12:23.390Z,5.85
2018-07-21T07:14:54.287Z,6.15
2018-07-21T07:17:25.833Z,5.80
2018-07-21T07:22:41.914Z,5.92
2018-07-21T07:25:12.746Z,5.28
2018-07-21T07:27:41.737Z,6.10
2018-07-21T07:30:10.705Z,8.70
2018-07-21T07:32:39.625Z,8.18
2018-07-21T07:35:11.654Z,7.35
2018-07-21T07:37:41.093Z,6.72
2018-07-21T07:40:09.980Z,6.50
2018-07-21T07:42:38.905Z,5.10
2018-07-21T07:45:07.585Z,5.10
2018-07-21T07:47:37.000Z,5.10
2018-07-21T07:50:07.455Z,5.97
2018-07-21T07:52:37.395Z,7.28
2018-07-21T07:55:06.524Z,6.55
2018-07-21T07:57:35.966Z,6.15
2018-07-21T08:00:21.006Z,6.17
2018-07-21T08:03:00.523Z,5.20
2018-07-21T08:05:29.949Z,5.80
2018-07-21T08:08:01.463Z,5.45
2018-07-21T08:10:31.442Z,4.83
2018-07-21T08:13:01.118Z,5.08
2018-07-21T08:15:32.499Z,5.55
2018-07-21T08:18:09.415Z,5.10
2018-07-21T08:20:42.125Z,5.60
2018-07-21T08:23:17.604Z,5.40
2018-07-21T08:25:52.130Z,5.28
2018-07-21T08:28:27.874Z,6.10
2018-07-21T08:31:03.078Z,4.90
2018-07-21T08:33:33.217Z,5.12
2018-07-21T08:36:03.748Z,5.35
2018-07-21T09:51:53.692Z,6.10
2018-07-21T09:58:05.231Z,5.70
2018-07-21T10:00:40.154Z,5.60
2018-07-21T10:03:10.522Z,5.55
2018-07-21T10:05:43.382Z,5.50
2018-07-21T10:08:13.584Z,5.53
2018-07-21T10:10:45.712Z,5.35
2018-07-21T10:13:16.388Z,5.72
2018-07-21T10:15:47.727Z,6.20
2018-07-21T10:18:17.641Z,5.72
2018-07-21T10:20:49.408Z,6.05
2018-07-21T10:30:19.281Z,5.72
2018-07-21T10:32:49.172Z,5.80
2018-07-21T10:35:19.043Z,5.42
2018-07-21T10:37:49.129Z,5.47
2018-07-21T10:40:21.975Z,5.78
2018-07-21T10:42:52.497Z,6.00
2018-07-21T10:45:22.471Z,6.33
2018-07-21T10:47:52.682Z,5.92
2018-07-21T10:50:22.751Z,5.80
2018-07-21T10:52:53.408Z,6.40
2018-07-21T10:55:23.337Z,5.72
2018-07-21T10:57:53.532Z,6.50
2018-07-21T11:00:23.724Z,5.87
2018-07-21T11:02:54.188Z,6.30
2018-07-21T11:05:24.252Z,6.17
2018-07-21T11:07:54.344Z,5.95
2018-07-21T11:10:24.166Z,6.08
2018-07-21T11:12:54.817Z,6.25
2018-07-21T11:15:24.872Z,5.45
2018-07-21T11:17:54.858Z,6.00
2018-07-21T11:20:25.401Z,6.17
2018-07-21T11:22:55.446Z,6.08
2018-07-21T11:25:25.441Z,5.35
2018-07-21T11:27:55.361Z,4.53
2018-07-21T11:30:25.490Z,5.85
2018-07-21T11:32:55.516Z,5.90
2018-07-21T11:35:25.617Z,5.58
2018-07-21T11:37:56.960Z,5.83
2018-07-21T11:40:27.027Z,5.83
2018-07-21T11:42:57.250Z,5.65
2018-07-21T11:45:27.238Z,5.08
2018-07-21T11:47:57.578Z,5.85
2018-07-21T11:50:28.749Z,5.25
2018-07-21T11:53:01.191Z,5.62
2018-07-21T11:55:31.881Z,5.70
2018-07-21T11:58:02.441Z,5.90
2018-07-21T12:00:32.669Z,5.50
2018-07-21T12:03:02.517Z,5.50
2018-07-21T12:05:33.507Z,5.75
2018-07-21T12:08:03.436Z,4.85
2018-07-21T12:10:33.478Z,5.10
2018-07-21T12:13:05.154Z,5.20
2018-07-21T12:15:38.500Z,5.95
2018-07-21T12:18:08.854Z,4.55
2018-07-21T12:20:38.886Z,4.58
2018-07-21T12:23:09.161Z,4.92
2018-07-21T12:25:40.957Z,4.67
2018-07-21T12:28:10.947Z,5.00
2018-07-21T12:30:41.653Z,4.80
2018-07-21T12:33:11.859Z,4.50
2018-07-21T12:35:41.823Z,4.97
2018-07-21T12:38:12.960Z,4.83
2018-07-21T12:40:43.767Z,4.40
2018-07-21T12:43:13.665Z,4.72
2018-07-21T12:45:45.346Z,4.40
2018-07-21T12:48:16.922Z,4.00
2018-07-21T12:50:47.354Z,5.15
2018-07-21T12:53:18.586Z,3.98
2018-07-21T12:55:48.582Z,3.98
2018-07-21T12:58:18.492Z,4.95
2018-07-21T13:00:50.725Z,4.80
2018-07-21T13:03:20.907Z,4.45
2018-07-21T13:05:56.222Z,4.65
2018-07-21T13:08:27.399Z,4.20
2018-07-21T13:10:57.779Z,4.60
2018-07-21T13:13:27.614Z,4.55
2018-07-21T13:15:57.497Z,4.62
2018-07-21T13:18:27.539Z,4.53
2018-07-21T13:20:57.480Z,5.40
2018-07-21T13:23:29.322Z,4.25
2018-07-21T13:25:59.542Z,4.03
2018-07-21T13:28:30.890Z,3.67
2018-07-21T13:31:01.037Z,3.90
2018-07-21T13:33:31.331Z,4.75
2018-07-21T13:36:01.345Z,4.20
2018-07-21T13:38:32.113Z,4.45
2018-07-21T13:41:02.133Z,4.92
2018-07-21T13:43:33.273Z,3.85
2018-07-21T13:46:03.742Z,3.22
2018-07-21T13:48:35.513Z,4.67
2018-07-21T13:51:06.192Z,4.67
2018-07-21T13:53:36.328Z,4.12
2018-07-21T13:56:08.069Z,4.92
2018-07-21T13:58:38.152Z,3.62
2018-07-21T14:01:09.590Z,5.00
2018-07-21T14:03:40.036Z,4.60
2018-07-21T14:06:10.849Z,3.77
2018-07-21T14:08:40.705Z,5.00
2018-07-21T14:11:10.843Z,4.90
2018-07-21T14:13:41.399Z,4.70
2018-07-21T14:16:11.565Z,5.22
2018-07-21T14:18:41.581Z,4.40
2018-07-21T14:21:15.513Z,5.22
2018-07-21T14:23:45.337Z,4.80
2018-07-21T14:26:15.130Z,4.87
2018-07-21T14:28:45.836Z,5.42
2018-07-21T14:31:15.797Z,5.60
2018-07-21T14:33:46.852Z,5.28
2018-07-21T14:36:17.883Z,5.10
2018-07-21T14:38:50.462Z,5.03
2018-07-21T14:41:20.402Z,4.87
2018-07-21T14:43:50.292Z,4.80
2018-07-21T14:46:22.023Z,5.40
2018-07-21T14:48:54.618Z,4.03
2018-07-21T14:51:25.815Z,7.00
2018-07-21T14:53:56.420Z,6.00
2018-07-21T14:56:27.009Z,5.28
2018-07-21T14:58:57.542Z,5.70
2018-07-21T15:01:28.423Z,5.97
2018-07-21T15:03:58.703Z,5.22
2018-07-21T15:06:28.972Z,5.50
2018-07-21T15:08:59.293Z,5.42
2018-07-21T15:11:29.366Z,5.67
2018-07-21T15:13:59.357Z,6.10
2018-07-21T15:16:29.355Z,5.95
2018-07-21T15:18:59.556Z,5.87
2018-07-21T15:21:29.651Z,5.62
2018-07-21T15:23:59.546Z,5.47
2018-07-21T15:26:29.468Z,6.17
2018-07-21T15:28:59.558Z,5.33
2018-07-21T15:31:29.466Z,5.87
2018-07-21T15:34:00.726Z,6.50
2018-07-21T15:36:32.111Z,5.37
2018-07-21T15:39:02.131Z,5.30
2018-07-21T15:41:31.781Z,4.10
2018-07-21T15:44:01.676Z,5.15
2018-07-21T15:46:31.627Z,5.70
2018-07-21T15:49:01.325Z,5.87
2018-07-21T15:51:30.836Z,10.08
2018-07-21T15:54:02.109Z,5.72
2018-07-21T15:56:32.164Z,5.62
2018-07-21T15:59:02.052Z,5.80
2018-07-21T16:01:33.866Z,6.08
2018-07-21T16:04:03.731Z,5.97
2018-07-21T16:06:33.744Z,5.35
2018-07-21T16:09:04.553Z,6.25
2018-07-21T16:11:34.161Z,5.95
2018-07-21T16:14:03.831Z,5.85
2018-07-21T16:16:33.481Z,6.10
2018-07-21T16:19:02.938Z,5.22
2018-07-21T16:21:32.328Z,4.72
2018-07-21T16:24:02.672Z,4.67
2018-07-21T16:26:32.093Z,5.95
2018-07-21T16:29:01.643Z,5.70
2018-07-21T16:31:31.331Z,6.20
2018-07-21T16:34:01.266Z,6.08
2018-07-21T16:36:31.586Z,6.65
2018-07-21T16:39:01.469Z,5.85
2018-07-21T16:41:31.927Z,6.78
2018-07-21T16:44:01.916Z,5.83
2018-07-21T16:46:32.242Z,5.97
2018-07-21T16:49:02.045Z,6.03
2018-07-21T16:51:32.071Z,6.10
2018-07-21T16:54:01.969Z,5.75
2018-07-21T16:56:32.341Z,8.80
2018-07-21T16:59:02.442Z,5.97
2018-07-21T17:01:33.597Z,6.37
2018-07-21T17:04:03.732Z,5.70
2018-07-21T17:06:33.823Z,5.95
2018-07-21T17:09:03.876Z,5.12
2018-07-21T17:11:35.524Z,5.62
2018-07-21T17:14:06.608Z,5.75
2018-07-21T17:16:36.437Z,5.97
2018-07-21T17:19:06.778Z,5.97
2018-07-21T17:21:36.959Z,5.55
2018-07-21T17:24:06.822Z,5.72
2018-07-21T17:26:36.729Z,6.10
2018-07-21T17:29:06.725Z,5.25
2018-07-21T17:31:36.674Z,5.70
2018-07-21T17:34:06.490Z,5.35
2018-07-21T17:36:36.509Z,5.62
2018-07-21T17:39:09.698Z,5.60
2018-07-21T17:41:39.514Z,6.25
2018-07-21T17:44:09.859Z,6.37
2018-07-21T17:46:39.646Z,6.45
2018-07-21T17:49:09.610Z,5.75
2018-07-21T17:51:39.685Z,5.47
2018-07-21T17:54:09.751Z,5.80
2018-07-21T17:56:40.612Z,6.45
2018-07-21T17:59:11.071Z,6.17
2018-07-21T18:01:41.120Z,5.97
2018-07-21T18:04:11.044Z,6.75
2018-07-21T18:06:41.008Z,5.75
2018-07-21T18:09:11.701Z,6.30
2018-07-21T18:11:41.681Z,5.55
2018-07-21T18:14:11.460Z,5.35
2018-07-21T18:16:41.388Z,6.33
2018-07-21T18:19:11.391Z,6.28
2018-07-21T18:21:41.133Z,6.08
2018-07-21T18:24:10.913Z,7.22
2018-07-21T18:26:41.241Z,7.08
2018-07-21T18:29:11.086Z,6.87
2018-07-21T18:31:40.919Z,6.58
2018-07-21T18:34:11.509Z,6.10
2018-07-21T18:36:42.101Z,6.15
2018-07-21T18:39:13.171Z,6.35
2018-07-21T18:41:43.813Z,6.20
2018-07-21T18:44:14.057Z,6.35
2018-07-21T18:46:44.735Z,6.22
2018-07-21T18:49:14.623Z,6.33
2018-07-21T18:51:44.653Z,6.83
2018-07-21T18:54:15.032Z,6.53
2018-07-21T18:56:44.978Z,6.67
2018-07-21T18:59:16.131Z,6.20
2018-07-21T19:01:46.593Z,5.90
2018-07-21T19:04:16.461Z,6.78
2018-07-21T19:06:46.289Z,6.80
2018-07-21T19:09:16.124Z,6.62
2018-07-21T19:11:49.984Z,6.78
2018-07-21T19:14:19.880Z,6.67
2018-07-21T19:16:51.025Z,6.50
2018-07-21T19:19:20.745Z,6.25
2018-07-21T19:21:51.846Z,6.50
2018-07-21T19:24:23.298Z,6.87
2018-07-21T19:26:59.184Z,6.37
2018-07-21T19:29:29.444Z,6.72
2018-07-21T19:32:04.615Z,7.05
2018-07-21T19:34:34.228Z,7.17
2018-07-21T19:37:07.616Z,7.47
2018-07-21T19:39:37.036Z,8.45
2018-07-21T19:42:07.029Z,7.65
2018-07-21T19:44:36.902Z,7.00
2018-07-21T19:47:07.034Z,6.70
2018-07-21T19:49:37.666Z,7.15
2018-07-21T19:52:07.566Z,7.05
2018-07-21T19:54:38.306Z,6.78
2018-07-21T19:57:08.301Z,7.33
2018-07-21T19:59:38.345Z,7.22
2018-07-21T20:02:08.476Z,6.55
2018-07-21T20:04:38.280Z,7.25
2018-07-21T20:07:08.081Z,7.20
2018-07-21T20:09:39.054Z,7.35
2018-07-21T20:12:08.529Z,6.85
2018-07-21T20:14:39.056Z,7.45
2018-07-21T20:17:08.801Z,7.17
2018-07-21T20:19:38.578Z,6.90
2018-07-21T20:22:08.541Z,7.03
2018-07-21T20:24:38.609Z,9.40
2018-07-21T20:27:08.759Z,9.28
2018-07-21T20:29:38.645Z,10.70
2018-07-21T20:32:08.624Z,8.13
2018-07-21T20:34:38.437Z,8.80
2018-07-21T20:37:08.368Z,7.78
2018-07-21T20:39:38.279Z,7.97
2018-07-21T20:42:08.143Z,8.15
2018-07-21T20:44:37.908Z,16.50
2018-07-21T20:47:08.489Z,17.57
2018-07-21T20:49:39.141Z,9.35
2018-07-21T20:52:09.604Z,11.80
2018-07-21T20:54:40.174Z,14.98
2018-07-21T20:57:11.379Z,8.33
2018-07-21T20:59:41.247Z,8.30
2018-07-21T21:02:11.140Z,8.05
2018-07-21T21:04:41.329Z,7.92
2018-07-21T21:07:11.242Z,7.28
2018-07-21T21:09:41.929Z,7.10
2018-07-21T21:12:12.136Z,8.00
2018-07-21T21:14:42.001Z,7.72
2018-07-21T21:17:13.538Z,7.12
2018-07-21T21:19:43.414Z,7.35
2018-07-21T21:22:13.908Z,7.40
2018-07-21T21:24:45.686Z,7.12
2018-07-21T21:27:15.648Z,7.45
2018-07-21T21:29:45.393Z,7.12
2018-07-21T21:32:16.356Z,7.10
2018-07-21T21:34:46.998Z,7.58
2018-07-21T21:37:16.833Z,7.83
2018-07-21T21:39:46.546Z,7.85
2018-07-21T21:42:16.499Z,7.83
2018-07-21T21:44:47.054Z,8.13
2018-07-21T21:47:16.907Z,8.30
2018-07-21T21:49:46.733Z,8.45
2018-07-21T21:52:17.081Z,8.23
2018-07-21T21:54:46.958Z,7.83
2018-07-21T21:57:16.744Z,7.45
2018-07-21T21:59:46.931Z,8.03
2018-07-21T22:02:20.819Z,7.87
2018-07-21T22:04:50.714Z,17.92
2018-07-21T22:07:20.254Z,6.87
2018-07-21T22:09:50.003Z,7.03
2018-07-21T22:12:20.725Z,6.80
2018-07-21T22:14:50.572Z,7.17
2018-07-21T22:17:20.905Z,7.40
2018-07-21T22:19:50.641Z,7.72
2018-07-21T22:22:20.693Z,6.87
2018-07-21T22:24:50.571Z,8.05
2018-07-21T22:27:20.456Z,7.50
2018-07-21T22:29:50.211Z,8.00
2018-07-21T22:32:21.457Z,7.33
2018-07-21T22:34:51.214Z,7.95
2018-07-21T22:37:21.018Z,8.45
2018-07-21T22:39:51.300Z,9.25
2018-07-21T22:42:21.625Z,8.10
2018-07-21T22:44:52.309Z,8.13
2018-07-21T22:49:45.806Z,7.40
2018-07-21T22:52:15.806Z,8.33
2018-07-21T22:54:45.802Z,9.13
2018-07-21T22:57:15.698Z,9.33
2018-07-21T22:59:45.461Z,7.42
2018-07-21T23:02:15.207Z,8.30
2018-07-21T23:04:45.121Z,8.08
2018-07-21T23:07:14.965Z,7.85
2018-07-21T23:09:44.750Z,8.75
2018-07-21T23:12:14.860Z,7.85
2018-07-21T23:14:44.774Z,7.60
2018-07-21T23:17:18.173Z,7.78
2018-07-21T23:19:50.413Z,8.00
2018-07-21T23:22:20.290Z,7.40
2018-07-21T23:24:50.150Z,7.37
2018-07-21T23:27:20.078Z,8.45
2018-07-21T23:29:51.440Z,9.05
2018-07-21T23:32:21.494Z,8.33
2018-07-21T23:34:51.976Z,8.20
2018-07-21T23:37:22.374Z,10.15
2018-07-21T23:39:53.793Z,8.40
2018-07-21T23:42:23.835Z,8.55
2018-07-21T23:44:53.753Z,10.08
2018-07-21T23:47:23.524Z,8.80
2018-07-21T23:50:03.545Z,9.35
2018-07-21T23:52:34.534Z,9.40
2018-07-21T23:55:05.702Z,8.70
2018-07-21T23:57:35.671Z,8.30
